Time;durP1;ratioP1;P1;durP2;ratioP2;P2;SDS_P1;SDS_P2;PMS_P1;PMS_P2;Temp;Humidity;BMP_temperature;BMP_pressure;BME280_temperature;BME280_humidity;BME280_pressure;Samples;Min_cycle;Max_cycle;Signal;HPM_P1;HPM_P2
2022/01/29 00:01:45;;;;;;;23.10;8.55;;;7.40;99.90;;;;;;5015336;28;20081;-75
2022/01/29 00:04:11;;;;;;;27.63;8.90;;;7.40;99.90;;;;;;5018478;28;20050;-75
2022/01/29 00:06:36;;;;;;;21.33;8.02;;;7.40;99.90;;;;;;5029447;28;20128;-74
2022/01/29 00:09:02;;;;;;;36.17;9.30;;;7.40;99.90;;;;;;5038062;28;20048;-75
2022/01/29 00:11:30;;;;;;;22.55;8.38;;;7.40;99.90;;;;;;5038746;28;20057;-73
2022/01/29 00:13:56;;;;;;;27.20;8.70;;;7.40;99.90;;;;;;5038508;28;20490;-74
2022/01/29 00:16:22;;;;;;;21.13;8.20;;;7.50;99.90;;;;;;5038559;28;20053;-74
2022/01/29 00:18:47;;;;;;;20.67;7.75;;;7.50;99.90;;;;;;5037592;28;20038;-73
2022/01/29 00:21:13;;;;;;;27.63;8.63;;;7.50;99.90;;;;;;5038543;28;20044;-74
2022/01/29 00:23:38;;;;;;;21.30;8.80;;;7.50;99.90;;;;;;5038167;28;20092;-73
2022/01/29 00:26:05;;;;;;;22.63;8.32;;;7.40;99.90;;;;;;5038275;28;20029;-74
2022/01/29 00:28:33;;;;;;;23.35;9.48;;;7.50;99.90;;;;;;5038246;28;20053;-73
2022/01/29 00:30:59;;;;;;;32.20;8.90;;;7.50;99.90;;;;;;5038163;28;20073;-75
2022/01/29 00:33:24;;;;;;;23.10;8.77;;;7.50;99.90;;;;;;5038029;28;20041;-73
2022/01/29 00:35:50;;;;;;;27.83;10.05;;;7.50;99.90;;;;;;5038361;28;20128;-72
2022/01/29 00:38:16;;;;;;;28.70;8.52;;;7.50;99.90;;;;;;5032484;28;20360;-74
2022/01/29 00:40:42;;;;;;;25.65;9.18;;;7.50;99.90;;;;;;5018249;28;20050;-73
2022/01/29 00:43:07;;;;;;;25.17;8.43;;;7.50;99.90;;;;;;5018546;28;20042;-73
2022/01/29 00:45:33;;;;;;;24.65;9.43;;;7.50;99.90;;;;;;5018672;28;20038;-74
2022/01/29 00:47:58;;;;;;;24.33;8.68;;;7.50;99.90;;;;;;5019238;28;20104;-73
2022/01/29 00:50:24;;;;;;;31.20;9.63;;;7.60;99.90;;;;;;5038000;28;20106;-72
2022/01/29 00:52:50;;;;;;;28.70;10.48;;;7.60;99.90;;;;;;5037590;28;20045;-75
2022/01/29 00:55:16;;;;;;;41.70;10.52;;;7.60;99.90;;;;;;5037699;28;20147;-74
2022/01/29 00:57:43;;;;;;;21.20;8.50;;;7.60;99.90;;;;;;5034596;28;20110;-74
2022/01/29 01:00:11;;;;;;;16.85;8.30;;;7.60;99.90;;;;;;5017073;28;20053;-73
2022/01/29 01:02:38;;;;;;;30.00;9.93;;;7.60;99.90;;;;;;5018470;28;20042;-75
2022/01/29 01:05:04;;;;;;;23.13;8.73;;;7.60;99.90;;;;;;5037661;28;20037;-74
2022/01/29 01:07:30;;;;;;;31.13;9.77;;;7.70;99.90;;;;;;5037216;28;20045;-74
2022/01/29 01:09:56;;;;;;;26.75;10.00;;;7.70;99.90;;;;;;5037299;28;20071;-74
2022/01/29 01:12:22;;;;;;;29.52;9.98;;;7.70;99.90;;;;;;5037622;28;20471;-73
2022/01/29 01:14:48;;;;;;;36.85;10.45;;;7.70;99.90;;;;;;5037150;28;20469;-74
2022/01/29 01:17:14;;;;;;;33.65;9.93;;;7.80;99.90;;;;;;5037319;28;20051;-77
2022/01/29 01:19:39;;;;;;;30.38;10.07;;;7.80;99.90;;;;;;5036758;28;20054;-72
2022/01/29 01:22:05;;;;;;;28.98;10.15;;;7.80;99.90;;;;;;5037378;28;20122;-73
2022/01/29 01:24:31;;;;;;;34.35;11.40;;;7.80;99.90;;;;;;5037500;28;20041;-74
2022/01/29 01:26:57;;;;;;;26.75;10.05;;;7.80;99.90;;;;;;5037417;28;20124;-74
2022/01/29 01:29:22;;;;;;;31.30;10.60;;;7.80;99.90;;;;;;5020433;28;20054;-73
2022/01/29 01:31:48;;;;;;;39.13;11.88;;;7.80;99.90;;;;;;5030098;28;20057;-74
2022/01/29 01:34:15;;;;;;;32.40;11.27;;;7.80;99.90;;;;;;5037097;28;20053;-73
2022/01/29 01:36:48;;;;;;;24.63;9.25;;;7.80;99.90;;;;;;5035966;28;20060;-74
2022/01/29 01:39:17;;;;;;;37.28;11.35;;;7.80;99.90;;;;;;5036695;28;20471;-74
2022/01/29 01:41:52;;;;;;;38.05;12.52;;;7.80;99.90;;;;;;5036227;28;20057;-75
2022/01/29 01:44:18;;;;;;;36.40;11.70;;;7.80;99.90;;;;;;5036974;28;20415;-76
2022/01/29 01:46:43;;;;;;;35.17;12.45;;;7.80;99.90;;;;;;5036625;28;20037;-75
2022/01/29 01:49:09;;;;;;;38.10;12.77;;;7.80;99.90;;;;;;5036908;28;20056;-74
2022/01/29 01:51:35;;;;;;;33.55;11.98;;;7.90;99.90;;;;;;5036697;28;20056;-73
2022/01/29 01:54:01;;;;;;;37.75;12.85;;;7.80;99.90;;;;;;5036444;28;20481;-73
2022/01/29 01:56:26;;;;;;;35.83;12.70;;;7.80;99.90;;;;;;5036055;28;20069;-74
2022/01/29 01:58:56;;;;;;;46.85;12.30;;;7.80;99.90;;;;;;5035972;28;20443;-75
2022/01/29 02:01:22;;;;;;;37.55;11.70;;;7.80;99.90;;;;;;5036521;28;20043;-73
2022/01/29 02:03:48;;;;;;;34.28;12.55;;;7.90;99.90;;;;;;5036386;28;20057;-74
2022/01/29 02:06:14;;;;;;;34.80;12.70;;;7.80;99.90;;;;;;5036418;28;20112;-73
2022/01/29 02:08:40;;;;;;;44.50;14.32;;;7.80;99.90;;;;;;5035879;28;20151;-74
2022/01/29 02:11:06;;;;;;;45.38;13.90;;;7.80;99.90;;;;;;5036376;28;20460;-75
2022/01/29 02:13:32;;;;;;;34.25;12.52;;;7.80;99.90;;;;;;5036471;28;20128;-74
2022/01/29 02:15:59;;;;;;;40.50;13.90;;;7.80;99.90;;;;;;5035429;28;20533;-76
2022/01/29 02:18:24;;;;;;;39.38;13.13;;;7.80;99.90;;;;;;5035357;28;20051;-73
2022/01/29 02:20:51;;;;;;;40.88;14.18;;;7.70;99.90;;;;;;5035721;28;20116;-75
2022/01/29 02:23:20;;;;;;;42.03;14.65;;;7.70;99.90;;;;;;5035824;28;20124;-73
2022/01/29 02:25:47;;;;;;;37.47;13.00;;;7.70;99.90;;;;;;5035839;28;20046;-74
2022/01/29 02:28:14;;;;;;;32.20;13.75;;;7.80;99.90;;;;;;5025908;28;20464;-74
2022/01/29 02:30:44;;;;;;;40.67;13.95;;;7.80;99.90;;;;;;5016439;28;20177;-73
2022/01/29 02:33:12;;;;;;;37.75;13.00;;;7.70;99.90;;;;;;5015039;28;20057;-73
2022/01/29 02:35:41;;;;;;;43.92;13.75;;;7.70;99.90;;;;;;5016104;28;20061;-72
2022/01/29 02:38:08;;;;;;;40.88;15.38;;;7.70;99.90;;;;;;5035307;28;20071;-75
2022/01/29 02:40:38;;;;;;;31.48;13.27;;;7.70;99.90;;;;;;5035852;28;20052;-73
2022/01/29 02:43:19;;;;;;;37.75;12.95;;;7.80;99.90;;;;;;5035829;28;20052;-73
2022/01/29 02:45:47;;;;;;;43.65;15.00;;;7.80;99.90;;;;;;5033511;28;20057;-73
2022/01/29 02:48:13;;;;;;;42.45;15.25;;;7.80;99.90;;;;;;5035074;28;20045;-75
2022/01/29 02:50:39;;;;;;;36.35;13.65;;;7.80;99.90;;;;;;5035927;28;20478;-75
2022/01/29 02:53:06;;;;;;;37.15;14.23;;;7.80;99.90;;;;;;5034950;28;20049;-74
2022/01/29 02:55:32;;;;;;;43.83;14.80;;;7.80;99.90;;;;;;5035106;28;20051;-75
2022/01/29 02:57:57;;;;;;;35.13;14.73;;;7.80;99.90;;;;;;5035253;28;20124;-76
2022/01/29 03:00:23;;;;;;;37.72;15.20;;;7.80;99.90;;;;;;5035023;28;20487;-72
2022/01/29 03:02:49;;;;;;;46.53;16.27;;;7.80;99.90;;;;;;5035935;28;20047;-74
2022/01/29 03:05:15;;;;;;;32.05;13.65;;;7.80;99.90;;;;;;5035564;28;20049;-74
2022/01/29 03:07:40;;;;;;;40.13;14.95;;;7.90;99.90;;;;;;5026696;28;20141;-75
2022/01/29 03:10:06;;;;;;;32.20;14.45;;;7.90;99.90;;;;;;5015546;28;20050;-75
2022/01/29 03:12:32;;;;;;;41.20;14.80;;;7.90;99.90;;;;;;5015821;28;20062;-75
2022/01/29 03:14:57;;;;;;;40.97;16.17;;;7.90;99.90;;;;;;5032907;28;20053;-74
2022/01/29 03:17:23;;;;;;;39.17;15.25;;;7.90;99.90;;;;;;5033782;28;20045;-74
2022/01/29 03:19:52;;;;;;;35.60;14.70;;;7.90;99.90;;;;;;5035099;28;20046;-73
2022/01/29 03:22:17;;;;;;;42.92;16.85;;;7.90;99.90;;;;;;5035301;28;20061;-73
2022/01/29 03:24:43;;;;;;;34.33;15.18;;;8.00;99.90;;;;;;5034796;28;20052;-72
2022/01/29 03:27:09;;;;;;;28.17;14.15;;;7.90;99.90;;;;;;5035111;28;20197;-74
2022/01/29 03:29:34;;;;;;;42.28;16.73;;;8.00;99.90;;;;;;5034954;28;20041;-73
2022/01/29 03:32:00;;;;;;;38.25;15.38;;;7.90;99.90;;;;;;5035008;28;20486;-73
2022/01/29 03:34:26;;;;;;;36.45;16.95;;;8.00;99.90;;;;;;5035043;28;20038;-73
2022/01/29 03:36:54;;;;;;;36.30;15.73;;;8.00;99.90;;;;;;5033827;28;20046;-73
2022/01/29 03:39:20;;;;;;;39.17;14.82;;;8.10;99.90;;;;;;5035181;28;20420;-74
2022/01/29 03:41:46;;;;;;;43.80;16.95;;;8.00;99.90;;;;;;5034761;28;20041;-74
2022/01/29 03:44:11;;;;;;;45.65;17.45;;;8.00;99.90;;;;;;5034502;28;20107;-73
2022/01/29 03:46:37;;;;;;;41.25;15.50;;;8.00;99.90;;;;;;5034651;28;20064;-73
2022/01/29 03:49:02;;;;;;;44.17;17.23;;;8.00;99.90;;;;;;5035032;28;20033;-74
2022/01/29 03:51:28;;;;;;;40.08;17.15;;;8.00;99.90;;;;;;5034709;28;20132;-75
2022/01/29 03:53:54;;;;;;;40.83;16.35;;;8.00;99.90;;;;;;5034946;28;20379;-74
2022/01/29 03:56:19;;;;;;;40.80;17.33;;;8.00;99.90;;;;;;5015935;28;20038;-75
2022/01/29 03:58:45;;;;;;;48.42;19.23;;;8.00;99.90;;;;;;5030753;28;20042;-77
2022/01/29 04:01:11;;;;;;;38.30;15.07;;;8.10;99.90;;;;;;5034729;28;20064;-74
2022/01/29 04:03:36;;;;;;;33.75;15.38;;;8.00;99.90;;;;;;5034682;28;20038;-73
2022/01/29 04:06:02;;;;;;;46.60;17.08;;;8.10;99.90;;;;;;5033895;28;20076;-74
2022/01/29 04:08:28;;;;;;;40.65;16.85;;;8.10;99.90;;;;;;5034000;28;20060;-75
2022/01/29 04:10:54;;;;;;;36.53;15.95;;;8.10;99.90;;;;;;5033623;28;20057;-73
2022/01/29 04:13:23;;;;;;;39.88;18.55;;;8.10;99.90;;;;;;5034163;28;20463;-74
2022/01/29 04:15:49;;;;;;;35.35;17.83;;;8.10;99.90;;;;;;5033632;28;20340;-74
2022/01/29 04:18:14;;;;;;;43.33;18.83;;;8.10;99.90;;;;;;5034581;28;20041;-74
2022/01/29 04:20:40;;;;;;;32.53;16.08;;;8.10;99.90;;;;;;5034509;28;20038;-73
2022/01/29 04:23:07;;;;;;;38.33;17.55;;;8.10;99.90;;;;;;5034365;28;20037;-75
2022/01/29 04:25:33;;;;;;;36.95;18.15;;;8.10;99.90;;;;;;5034050;28;20049;-74
2022/01/29 04:27:59;;;;;;;41.08;17.52;;;8.10;99.90;;;;;;5033050;28;20129;-73
2022/01/29 04:30:30;;;;;;;36.90;17.58;;;8.10;99.90;;;;;;5034474;28;20049;-77
2022/01/29 04:33:01;;;;;;;41.85;17.67;;;8.10;99.90;;;;;;5034464;28;20124;-73
2022/01/29 04:35:28;;;;;;;33.35;16.70;;;8.10;99.90;;;;;;5034562;28;20406;-74
2022/01/29 04:37:54;;;;;;;37.03;17.13;;;8.20;99.90;;;;;;5033842;28;20460;-74
2022/01/29 04:40:20;;;;;;;36.45;17.67;;;8.20;99.90;;;;;;5034218;28;20053;-75
2022/01/29 04:42:45;;;;;;;32.17;16.67;;;8.10;99.90;;;;;;5034335;28;20451;-75
2022/01/29 04:45:11;;;;;;;33.90;18.13;;;8.10;99.90;;;;;;5034347;28;20176;-73
2022/01/29 04:47:37;;;;;;;44.47;19.70;;;8.10;99.90;;;;;;5034109;28;20042;-75
2022/01/29 04:50:04;;;;;;;45.67;17.88;;;8.10;99.90;;;;;;5037270;28;20095;-73
2022/01/29 04:52:29;;;;;;;40.25;17.05;;;8.10;99.90;;;;;;5038190;28;20064;-72
2022/01/29 04:54:55;;;;;;;35.90;17.95;;;8.10;99.90;;;;;;5037590;28;20045;-73
2022/01/29 04:57:20;;;;;;;35.05;18.25;;;8.10;99.90;;;;;;5037740;28;20475;-75
2022/01/29 04:59:46;;;;;;;36.67;17.33;;;8.10;99.90;;;;;;5037939;28;20045;-74
2022/01/29 05:02:11;;;;;;;42.00;18.40;;;8.10;99.90;;;;;;5037978;28;20037;-76
2022/01/29 05:04:37;;;;;;;35.95;19.23;;;8.20;99.90;;;;;;5037852;28;20128;-73
2022/01/29 05:07:03;;;;;;;45.53;18.75;;;8.20;99.90;;;;;;5036955;28;20490;-73
2022/01/29 05:09:28;;;;;;;38.65;18.15;;;8.20;99.90;;;;;;5037296;28;20100;-74
2022/01/29 05:11:55;;;;;;;44.35;18.58;;;8.20;99.90;;;;;;5037473;28;20128;-72
2022/01/29 05:26:48;;;;;;;42.00;18.80;;;8.20;99.90;;;;;;5037471;28;20049;-74
2022/01/29 05:27:55;;;;;;;39.92;19.33;;;8.10;99.90;;;;;;5037046;28;20045;-73
2022/01/29 05:30:22;;;;;;;43.70;19.15;;;8.10;99.90;;;;;;5036853;28;20045;-75
2022/01/29 05:32:48;;;;;;;36.80;19.52;;;8.10;99.90;;;;;;5037206;28;20391;-73
2022/01/29 05:35:13;;;;;;;36.60;17.55;;;8.10;99.90;;;;;;5037040;28;20045;-73
2022/01/29 05:37:39;;;;;;;33.20;17.60;;;8.10;99.90;;;;;;5018282;28;20042;-74
2022/01/29 05:40:05;;;;;;;41.88;17.05;;;8.20;99.90;;;;;;5016423;28;20383;-72
2022/01/29 05:42:31;;;;;;;35.00;17.02;;;8.20;99.90;;;;;;5027059;28;20045;-75
2022/01/29 05:44:56;;;;;;;30.83;16.10;;;8.30;99.90;;;;;;5036983;28;20363;-75
2022/01/29 05:47:22;;;;;;;33.72;17.33;;;8.30;99.90;;;;;;5036424;28;20056;-75
2022/01/29 05:49:47;;;;;;;33.30;16.65;;;8.30;99.90;;;;;;5036785;28;20049;-72
2022/01/29 05:52:13;;;;;;;37.65;18.05;;;8.20;99.90;;;;;;5036680;28;20091;-74
2022/01/29 05:54:38;;;;;;;32.35;17.42;;;8.20;99.90;;;;;;5037070;28;20124;-73
2022/01/29 05:57:04;;;;;;;31.10;17.27;;;8.20;99.90;;;;;;5036452;28;20041;-74
2022/01/29 05:59:34;;;;;;;33.15;16.77;;;8.40;99.90;;;;;;5036333;28;20543;-74
2022/01/29 06:02:00;;;;;;;36.22;17.92;;;8.30;99.90;;;;;;5035953;28;20041;-73
2022/01/29 06:04:25;;;;;;;33.05;16.45;;;8.40;99.90;;;;;;5036480;28;20038;-73
2022/01/29 06:06:51;;;;;;;37.33;19.50;;;8.40;99.90;;;;;;5024196;28;20057;-72
2022/01/29 06:09:16;;;;;;;32.47;18.63;;;8.40;99.90;;;;;;5016221;28;20054;-77
2022/01/29 06:11:42;;;;;;;27.40;15.55;;;8.40;99.90;;;;;;5023715;28;20060;-73
2022/01/29 06:14:09;;;;;;;33.65;17.75;;;8.40;99.90;;;;;;5035909;28;20057;-74
2022/01/29 06:16:34;;;;;;;33.35;16.95;;;8.40;99.90;;;;;;5035700;28;20472;-74
2022/01/29 06:19:00;;;;;;;35.95;17.45;;;8.30;99.90;;;;;;5035222;28;20056;-75
2022/01/29 06:21:25;;;;;;;30.75;14.95;;;8.40;99.90;;;;;;5036338;28;20045;-74
2022/01/29 06:23:51;;;;;;;39.75;18.88;;;8.30;99.90;;;;;;5036018;28;20106;-75
2022/01/29 06:26:17;;;;;;;36.15;16.75;;;8.30;99.90;;;;;;5018505;28;20077;-74
2022/01/29 06:28:43;;;;;;;30.08;15.85;;;8.30;99.90;;;;;;5035876;28;20059;-74
2022/01/29 06:31:09;;;;;;;38.45;16.35;;;8.30;99.90;;;;;;5034679;28;20062;-73
2022/01/29 06:33:35;;;;;;;35.70;14.55;;;8.30;99.90;;;;;;5034843;28;20103;-72
2022/01/29 06:36:00;;;;;;;39.58;15.73;;;8.30;99.90;;;;;;5028381;28;20046;-74
2022/01/29 06:38:26;;;;;;;34.90;15.30;;;8.30;99.90;;;;;;5015942;28;20041;-74
2022/01/29 06:40:52;;;;;;;30.70;14.55;;;8.40;99.90;;;;;;5015866;28;20077;-75
2022/01/29 06:43:18;;;;;;;26.08;14.27;;;8.40;99.90;;;;;;5015373;28;20085;-75
2022/01/29 06:45:44;;;;;;;34.33;15.90;;;8.30;99.90;;;;;;5020223;28;20072;-75
2022/01/29 06:48:11;;;;;;;30.33;14.65;;;8.40;99.90;;;;;;5035807;28;20089;-73
2022/01/29 06:50:37;;;;;;;34.65;14.15;;;8.40;99.90;;;;;;5035637;28;20058;-72
2022/01/29 06:53:04;;;;;;;35.03;14.57;;;8.40;99.90;;;;;;5035538;28;20043;-73
2022/01/29 06:55:30;;;;;;;33.80;15.10;;;8.40;99.90;;;;;;5034799;28;20117;-73
2022/01/29 06:57:56;;;;;;;30.95;15.35;;;8.40;99.90;;;;;;5035521;28;20057;-72
2022/01/29 07:00:21;;;;;;;29.73;12.10;;;8.40;99.90;;;;;;5034809;28;20356;-74
2022/01/29 07:02:47;;;;;;;32.17;12.52;;;8.40;99.90;;;;;;5035519;28;20128;-72
2022/01/29 07:05:12;;;;;;;30.13;14.32;;;8.30;99.90;;;;;;5034351;28;20084;-73
2022/01/29 07:07:38;;;;;;;30.48;13.02;;;8.40;99.90;;;;;;5015492;28;20042;-75
2022/01/29 07:10:06;;;;;;;28.88;13.68;;;8.40;99.90;;;;;;5015552;28;20068;-74
2022/01/29 07:12:32;;;;;;;29.30;13.07;;;8.40;99.90;;;;;;5014960;28;20077;-74
2022/01/29 07:14:57;;;;;;;32.30;13.63;;;8.30;99.90;;;;;;5031442;28;20939;-76
2022/01/29 07:17:24;;;;;;;27.95;13.32;;;8.30;99.90;;;;;;5035161;28;20048;-76
2022/01/29 07:19:51;;;;;;;28.60;12.88;;;8.40;99.90;;;;;;5035293;28;20052;-74
2022/01/29 07:22:18;;;;;;;31.08;12.90;;;8.40;99.90;;;;;;5034194;28;20037;-74
2022/01/29 07:24:44;;;;;;;21.25;10.40;;;8.30;99.90;;;;;;5035151;28;20084;-75
2022/01/29 07:27:10;;;;;;;21.40;11.07;;;8.40;99.90;;;;;;5034742;28;20428;-75
2022/01/29 07:29:35;;;;;;;34.92;11.40;;;8.40;99.90;;;;;;5034799;28;20450;-74
2022/01/29 07:32:02;;;;;;;28.33;11.65;;;8.40;99.90;;;;;;5034199;28;20060;-73
2022/01/29 07:34:28;;;;;;;24.02;11.45;;;8.40;99.90;;;;;;5033876;28;20041;-75
2022/01/29 07:36:55;;;;;;;27.42;12.68;;;8.40;99.90;;;;;;5018077;28;20050;-74
2022/01/29 07:39:21;;;;;;;23.98;11.65;;;8.40;99.90;;;;;;5015443;28;20085;-75
2022/01/29 07:41:47;;;;;;;21.55;11.25;;;8.40;99.90;;;;;;5015058;28;20124;-73
2022/01/29 07:44:14;;;;;;;31.02;13.25;;;8.50;99.90;;;;;;5014661;28;20472;-75
2022/01/29 07:46:40;;;;;;;27.65;11.25;;;8.50;99.90;;;;;;5028506;28;20183;-77
2022/01/29 07:49:05;;;;;;;24.30;10.90;;;8.40;99.90;;;;;;5034495;28;20518;-75
2022/01/29 07:51:31;;;;;;;25.75;10.95;;;8.50;99.90;;;;;;5034686;28;20098;-73
2022/01/29 07:53:57;;;;;;;28.33;10.20;;;8.50;99.90;;;;;;5034883;28;20376;-74
2022/01/29 07:56:22;;;;;;;30.70;11.43;;;8.60;99.90;;;;;;5034455;28;20092;-74
2022/01/29 07:58:49;;;;;;;28.17;10.43;;;8.50;99.90;;;;;;5034411;28;20049;-73
2022/01/29 08:01:14;;;;;;;34.60;11.98;;;8.50;99.90;;;;;;5034558;28;20041;-74
2022/01/29 08:03:41;;;;;;;24.75;10.00;;;8.60;99.90;;;;;;5034701;28;20367;-73
2022/01/29 08:06:07;;;;;;;25.42;11.60;;;8.60;99.90;;;;;;5023918;28;20516;-73
2022/01/29 08:08:33;;;;;;;25.60;9.90;;;8.70;99.90;;;;;;5015130;28;20133;-72
2022/01/29 08:10:59;;;;;;;24.45;10.35;;;8.70;99.90;;;;;;5014862;28;20085;-73
2022/01/29 08:13:25;;;;;;;23.73;8.63;;;8.70;99.90;;;;;;5014757;28;20092;-75
2022/01/29 08:15:50;;;;;;;20.25;8.68;;;8.70;99.90;;;;;;5026008;28;20047;-74
2022/01/29 08:18:16;;;;;;;25.73;9.25;;;8.70;99.90;;;;;;5028578;28;20411;-74
2022/01/29 08:20:41;;;;;;;20.63;9.43;;;8.70;99.90;;;;;;5016088;28;20050;-74
2022/01/29 08:23:08;;;;;;;24.15;8.73;;;8.80;99.90;;;;;;5013548;28;20042;-73
2022/01/29 08:25:35;;;;;;;19.42;8.25;;;8.80;99.90;;;;;;5001310;28;20042;-75
2022/01/29 08:28:00;;;;;;;17.70;7.30;;;8.90;99.90;;;;;;5018351;28;20123;-74
2022/01/29 08:30:26;;;;;;;19.60;8.13;;;8.90;99.90;;;;;;5028708;28;20452;-74
2022/01/29 08:32:52;;;;;;;23.65;8.88;;;8.90;99.90;;;;;;5038722;28;20037;-76
2022/01/29 08:35:17;;;;;;;28.38;9.35;;;8.80;99.90;;;;;;5035698;28;20048;-74
2022/01/29 08:37:44;;;;;;;22.10;8.85;;;8.80;99.90;;;;;;5018529;28;20081;-74
2022/01/29 08:40:10;;;;;;;20.63;8.50;;;8.80;99.90;;;;;;5018621;28;20049;-74
2022/01/29 08:42:36;;;;;;;19.73;8.55;;;8.80;99.90;;;;;;5021694;28;20045;-73
2022/01/29 08:45:04;;;;;;;22.25;9.88;;;8.90;99.90;;;;;;5038052;28;20038;-74
2022/01/29 08:47:30;;;;;;;27.60;8.95;;;8.90;99.90;;;;;;5037785;28;20056;-74
2022/01/29 08:49:55;;;;;;;15.57;8.55;;;9.00;99.90;;;;;;5037929;28;20037;-75
2022/01/29 08:52:21;;;;;;;21.45;8.75;;;8.90;99.90;;;;;;5038180;28;20367;-74
2022/01/29 08:54:47;;;;;;;17.65;7.80;;;9.00;99.90;;;;;;5037624;28;20041;-73
2022/01/29 08:57:13;;;;;;;28.27;8.43;;;9.00;99.90;;;;;;5037801;28;20038;-75
2022/01/29 08:59:39;;;;;;;23.60;8.55;;;9.00;99.90;;;;;;5037884;28;20511;-75
2022/01/29 09:02:04;;;;;;;21.98;7.03;;;8.90;99.90;;;;;;5037561;28;20092;-73
2022/01/29 09:04:30;;;;;;;21.48;7.50;;;9.00;99.90;;;;;;5036899;28;20081;-74
2022/01/29 09:06:56;;;;;;;18.58;6.85;;;9.00;99.90;;;;;;5028848;28;20046;-74
2022/01/29 09:09:25;;;;;;;18.52;6.82;;;9.00;99.90;;;;;;5017652;28;20136;-75
2022/01/29 09:11:52;;;;;;;19.80;7.50;;;9.00;99.90;;;;;;5026426;28;20360;-72
2022/01/29 09:14:18;;;;;;;20.08;6.93;;;9.00;99.90;;;;;;5037417;28;20046;-74
2022/01/29 09:16:45;;;;;;;18.73;7.65;;;9.00;99.90;;;;;;5036858;28;20099;-73
2022/01/29 09:19:11;;;;;;;22.98;6.90;;;9.00;99.90;;;;;;5037724;28;20363;-76
2022/01/29 09:21:36;;;;;;;14.85;5.90;;;9.10;99.90;;;;;;5037735;28;20118;-74
2022/01/29 09:24:02;;;;;;;20.73;6.07;;;9.10;99.90;;;;;;5037174;28;20041;-72
2022/01/29 09:26:28;;;;;;;16.00;6.18;;;9.10;99.90;;;;;;5036609;28;20045;-73
2022/01/29 09:28:53;;;;;;;18.27;6.40;;;9.10;99.90;;;;;;5037368;28;20053;-72
2022/01/29 09:31:19;;;;;;;22.10;6.15;;;9.10;99.90;;;;;;5036323;28;20451;-72
2022/01/29 09:33:44;;;;;;;20.90;6.00;;;9.10;99.90;;;;;;5037228;28;20111;-76
2022/01/29 09:36:10;;;;;;;20.92;7.05;;;9.10;99.90;;;;;;5037168;28;20047;-73
2022/01/29 09:38:36;;;;;;;16.80;6.00;;;9.20;99.90;;;;;;5036316;28;20064;-74
2022/01/29 09:41:03;;;;;;;15.10;4.63;;;9.20;99.90;;;;;;5037865;28;20387;-75
2022/01/29 09:43:31;;;;;;;15.70;6.10;;;9.20;99.90;;;;;;5036925;28;20041;-75
2022/01/29 09:45:57;;;;;;;21.23;5.45;;;9.20;99.90;;;;;;5034305;28;20041;-74
2022/01/29 09:48:24;;;;;;;16.52;5.00;;;9.20;99.90;;;;;;5036428;28;20045;-75
2022/01/29 09:50:51;;;;;;;17.70;4.75;;;9.30;99.90;;;;;;5036292;28;20038;-76
2022/01/29 09:53:18;;;;;;;19.23;5.20;;;9.30;99.90;;;;;;5036472;28;20061;-73
2022/01/29 09:55:43;;;;;;;15.23;4.53;;;9.30;99.90;;;;;;5036644;28;20049;-75
2022/01/29 09:58:10;;;;;;;20.13;5.00;;;9.40;99.90;;;;;;5035689;28;20076;-74
2022/01/29 10:00:36;;;;;;;16.40;5.53;;;9.40;99.90;;;;;;5035321;28;20045;-74
2022/01/29 10:03:20;;;;;;;14.13;4.20;;;9.40;99.90;;;;;;5036278;28;20472;-75
2022/01/29 10:05:51;;;;;;;15.77;5.17;;;9.40;99.90;;;;;;5021029;28;20045;-72
2022/01/29 10:08:19;;;;;;;11.10;4.00;;;9.40;99.90;;;;;;5016574;28;20046;-76
2022/01/29 10:10:46;;;;;;;19.48;4.38;;;9.40;99.90;;;;;;5023982;28;20132;-75
2022/01/29 10:13:21;;;;;;;16.38;4.50;;;9.40;99.90;;;;;;5026869;28;20061;-76
2022/01/29 10:15:47;;;;;;;15.90;3.83;;;9.40;99.90;;;;;;5016183;28;20460;-75
2022/01/29 10:18:21;;;;;;;17.67;5.82;;;9.40;99.90;;;;;;5016514;28;20042;-72
2022/01/29 10:20:46;;;;;;;19.48;5.95;;;9.40;99.90;;;;;;5016539;28;20422;-74
2022/01/29 10:23:12;;;;;;;16.52;5.93;;;9.40;99.90;;;;;;5016365;28;20041;-73
2022/01/29 10:25:41;;;;;;;20.80;5.22;;;9.50;99.90;;;;;;5024451;28;20049;-75
2022/01/29 10:28:19;;;;;;;24.30;4.93;;;9.50;99.90;;;;;;5035972;28;20042;-76
2022/01/29 10:30:51;;;;;;;23.13;5.80;;;9.50;99.90;;;;;;5036173;28;20053;-77
2022/01/29 10:33:34;;;;;;;13.75;4.53;;;9.50;99.90;;;;;;5035959;28;20409;-73
2022/01/29 10:36:04;;;;;;;19.52;4.20;;;9.50;99.90;;;;;;5036269;28;20469;-74
2022/01/29 10:38:44;;;;;;;16.48;4.80;;;9.60;99.90;;;;;;5035910;28;20038;-73
2022/01/29 10:41:31;;;;;;;20.35;4.53;;;9.60;99.90;;;;;;5034742;28;20049;-74
2022/01/29 10:44:18;;;;;;;16.40;4.90;;;9.50;99.90;;;;;;5019791;28;20124;-75
2022/01/29 10:46:43;;;;;;;17.88;4.88;;;9.50;99.90;;;;;;5015801;28;20042;-74
2022/01/29 10:49:17;;;;;;;17.27;5.30;;;9.40;99.90;;;;;;5015255;28;20571;-75
2022/01/29 10:51:57;;;;;;;18.48;4.78;;;9.40;99.90;;;;;;5015613;28;20109;-75
2022/01/29 10:54:23;;;;;;;19.27;4.95;;;9.50;99.90;;;;;;5019121;28;20045;-74
2022/01/29 10:56:57;;;;;;;15.25;4.60;;;9.50;99.90;;;;;;5035849;28;20517;-73
2022/01/29 10:59:23;;;;;;;;;;;9.50;99.90;;;;;;5036171;28;20053;-74
2022/01/29 11:01:51;;;;;;;13.63;4.00;;;9.60;99.90;;;;;;5034979;28;20255;-73
2022/01/29 11:04:17;;;;;;;16.00;3.63;;;9.60;99.90;;;;;;5034919;28;20459;-74
2022/01/29 11:06:45;;;;;;;14.43;4.07;;;9.60;99.90;;;;;;5035610;28;20077;-75
2022/01/29 11:09:12;;;;;;;20.65;5.13;;;9.60;99.90;;;;;;5035324;28;20132;-73
2022/01/29 11:11:45;;;;;;;15.48;3.90;;;9.60;99.90;;;;;;5035472;28;20068;-76
2022/01/29 11:14:13;;;;;;;18.23;5.75;;;9.70;99.90;;;;;;5035354;28;20055;-76
2022/01/29 11:16:39;;;;;;;15.38;4.65;;;9.70;99.90;;;;;;5035138;28;20052;-73
2022/01/29 11:19:06;;;;;;;13.02;4.10;;;9.80;99.90;;;;;;5034964;28;20103;-75
2022/01/29 11:21:32;;;;;;;13.45;3.33;;;9.90;99.90;;;;;;5034446;28;20110;-73
2022/01/29 11:23:59;;;;;;;15.60;4.40;;;9.90;99.90;;;;;;5015667;28;20072;-74
2022/01/29 11:26:25;;;;;;;15.48;4.63;;;9.90;99.90;;;;;;5015512;28;20061;-75
2022/01/29 11:29:29;;;;;;;10.35;3.67;;;9.90;99.90;;;;;;5018337;28;20045;-74
2022/01/29 11:32:23;;;;;;;16.13;4.13;;;9.90;99.90;;;;;;5034956;28;20467;-73
2022/01/29 11:35:18;;;;;;;13.75;3.88;;;9.90;99.90;;;;;;5034694;28;20471;-75
2022/01/29 11:37:46;;;;;;;;;;;9.90;99.90;;;;;;5014427;28;20061;-74
2022/01/29 11:40:16;;;;;;;12.95;4.65;;;9.80;99.90;;;;;;5014898;28;19921;-74
2022/01/29 11:42:59;;;;;;;16.65;4.18;;;9.90;99.90;;;;;;5019913;28;20059;-75
2022/01/29 11:45:53;;;;;;;12.30;3.45;;;9.90;99.90;;;;;;5034828;28;20049;-76
2022/01/29 11:48:28;;;;;;;14.60;4.25;;;9.90;99.90;;;;;;5034647;28;20053;-75
2022/01/29 11:50:56;;;;;;;15.05;3.70;;;9.90;99.90;;;;;;5034942;28;20493;-74
2022/01/29 11:53:23;;;;;;;9.57;3.40;;;9.90;99.90;;;;;;5032689;28;20045;-75
2022/01/29 11:55:54;;;;;;;10.23;4.00;;;9.90;99.90;;;;;;5034913;28;20061;-73
2022/01/29 11:58:20;;;;;;;25.98;6.25;;;9.90;99.90;;;;;;5033801;28;20179;-75
2022/01/29 12:00:51;;;;;;;21.38;4.35;;;9.90;99.90;;;;;;5038986;28;20095;-78
2022/01/29 12:03:36;;;;;;;18.52;4.85;;;9.90;99.90;;;;;;5037971;28;20060;-75
2022/01/29 12:09:07;;;;;;;20.67;4.07;;;10.00;99.90;;;;;;5038733;28;20056;-77
2022/01/29 12:11:39;;;;;;;16.90;4.78;;;10.00;99.90;;;;;;5035484;28;20057;-71
2022/01/29 12:14:13;;;;;;;20.48;4.90;;;10.00;99.90;;;;;;5018469;28;20528;-73
2022/01/29 12:16:57;;;;;;;18.90;3.88;;;10.00;99.90;;;;;;5019104;28;20068;-72
2022/01/29 12:19:43;;;;;;;17.00;4.55;;;10.00;99.90;;;;;;5018519;28;20084;-74
2022/01/29 12:22:10;;;;;;;18.67;4.53;;;10.00;99.90;;;;;;5018850;28;20170;-72
2022/01/29 12:24:38;;;;;;;16.73;4.82;;;10.10;99.90;;;;;;5018714;28;20057;-73
2022/01/29 12:27:04;;;;;;;17.98;5.18;;;10.10;99.90;;;;;;5018798;28;20141;-72
2022/01/29 12:29:30;;;;;;;19.92;5.18;;;10.10;99.90;;;;;;5017676;28;20129;-73
2022/01/29 12:31:57;;;;;;;20.00;4.65;;;10.10;99.90;;;;;;5025630;28;20045;-73
2022/01/29 12:34:24;;;;;;;25.38;4.70;;;10.10;99.90;;;;;;5038413;28;20088;-73
2022/01/29 12:36:50;;;;;;;15.70;4.10;;;10.00;99.90;;;;;;5037701;28;20053;-72
2022/01/29 12:39:24;;;;;;;23.80;5.05;;;10.00;99.90;;;;;;5038571;28;20041;-74
2022/01/29 12:42:06;;;;;;;30.88;6.22;;;10.00;99.90;;;;;;5038262;28;20049;-73
2022/01/29 12:44:32;;;;;;;20.60;4.80;;;10.00;99.90;;;;;;5037957;28;20045;-72
2022/01/29 12:46:57;;;;;;;19.65;4.70;;;10.00;99.90;;;;;;5037691;28;20124;-73
2022/01/29 12:49:23;;;;;;;24.33;5.55;;;9.90;99.90;;;;;;5037830;28;20052;-71
2022/01/29 12:51:51;;;;;;;16.02;5.10;;;9.90;99.90;;;;;;5037859;28;20053;-73
2022/01/29 12:54:18;;;;;;;24.02;5.57;;;9.90;99.90;;;;;;5037826;28;20061;-71
2022/01/29 12:56:44;;;;;;;20.35;5.22;;;9.80;99.90;;;;;;5037627;28;20052;-71